sensor_id;sensor_type;location;lat;lon;timestamp;temperature;humidity
37380;DHT22;23252;-33.992;18.480;2023-04-24T00:01:05;17.70;99.90
37380;DHT22;23252;-33.992;18.480;2023-04-24T00:03:33;17.70;99.90
37380;DHT22;23252;-33.992;18.480;2023-04-24T00:06:00;17.70;99.90
37380;DHT22;23252;-33.992;18.480;2023-04-24T00:08:26;17.70;99.90
37380;DHT22;23252;-33.992;18.480;2023-04-24T00:10:53;17.70;99.90
37380;DHT22;23252;-33.992;18.480;2023-04-24T00:13:19;17.70;99.90
37380;DHT22;23252;-33.992;18.480;2023-04-24T00:15:46;17.70;99.90
37380;DHT22;23252;-33.992;18.480;2023-04-24T00:18:13;17.70;99.90
37380;DHT22;23252;-33.992;18.480;2023-04-24T00:20:39;17.70;99.90
37380;DHT22;23252;-33.992;18.480;2023-04-24T02:13:39;17.80;99.90
37380;DHT22;23252;-33.992;18.480;2023-04-24T02:16:06;18.00;99.90
37380;DHT22;23252;-33.992;18.480;2023-04-24T02:18:32;18.00;99.90
37380;DHT22;23252;-33.992;18.480;2023-04-24T02:20:59;18.00;99.90
37380;DHT22;23252;-33.992;18.480;2023-04-24T02:23:25;18.00;99.90
37380;DHT22;23252;-33.992;18.480;2023-04-24T02:25:52;18.00;99.90
37380;DHT22;23252;-33.992;18.480;2023-04-24T02:28:19;17.90;99.90
37380;DHT22;23252;-33.992;18.480;2023-04-24T02:30:46;18.00;99.90
37380;DHT22;23252;-33.992;18.480;2023-04-24T02:33:12;18.10;99.90
37380;DHT22;23252;-33.992;18.480;2023-04-24T02:35:39;18.10;99.90
37380;DHT22;23252;-33.992;18.480;2023-04-24T02:38:05;18.10;99.90
37380;DHT22;23252;-33.992;18.480;2023-04-24T02:40:32;18.10;99.90
37380;DHT22;23252;-33.992;18.480;2023-04-24T02:42:58;18.10;99.90
37380;DHT22;23252;-33.992;18.480;2023-04-24T02:45:25;18.00;99.90
37380;DHT22;23252;-33.992;18.480;2023-04-24T02:47:51;18.00;99.90
37380;DHT22;23252;-33.992;18.480;2023-04-24T02:50:18;18.00;99.90
37380;DHT22;23252;-33.992;18.480;2023-04-24T02:52:44;18.00;99.90
37380;DHT22;23252;-33.992;18.480;2023-04-24T02:55:11;18.00;99.90
37380;DHT22;23252;-33.992;18.480;2023-04-24T02:57:38;18.00;99.90
37380;DHT22;23252;-33.992;18.480;2023-04-24T03:00:05;18.00;99.90
37380;DHT22;23252;-33.992;18.480;2023-04-24T03:02:33;18.00;99.90
37380;DHT22;23252;-33.992;18.480;2023-04-24T03:05:01;18.00;99.90
37380;DHT22;23252;-33.992;18.480;2023-04-24T03:07:28;17.90;99.90
37380;DHT22;23252;-33.992;18.480;2023-04-24T03:09:54;18.00;99.90
37380;DHT22;23252;-33.992;18.480;2023-04-24T03:12:21;17.90;99.90
37380;DHT22;23252;-33.992;18.480;2023-04-24T03:14:49;17.90;99.90
37380;DHT22;23252;-33.992;18.480;2023-04-24T03:17:16;17.80;99.90
37380;DHT22;23252;-33.992;18.480;2023-04-24T03:19:42;17.70;99.90
37380;DHT22;23252;-33.992;18.480;2023-04-24T03:22:09;17.70;99.90
37380;DHT22;23252;-33.992;18.480;2023-04-24T03:24:35;17.70;99.90
37380;DHT22;23252;-33.992;18.480;2023-04-24T03:27:02;17.70;99.90
37380;DHT22;23252;-33.992;18.480;2023-04-24T03:29:28;17.70;99.90
37380;DHT22;23252;-33.992;18.480;2023-04-24T03:31:55;17.70;99.90
37380;DHT22;23252;-33.992;18.480;2023-04-24T03:34:21;17.70;99.90
37380;DHT22;23252;-33.992;18.480;2023-04-24T03:36:48;17.60;99.90
37380;DHT22;23252;-33.992;18.480;2023-04-24T03:39:14;17.50;99.90
37380;DHT22;23252;-33.992;18.480;2023-04-24T03:41:41;17.50;99.90
37380;DHT22;23252;-33.992;18.480;2023-04-24T03:44:08;17.50;99.90
37380;DHT22;23252;-33.992;18.480;2023-04-24T03:46:34;17.50;99.90
37380;DHT22;23252;-33.992;18.480;2023-04-24T03:49:01;17.60;99.90
37380;DHT22;23252;-33.992;18.480;2023-04-24T03:51:27;17.50;99.90
37380;DHT22;23252;-33.992;18.480;2023-04-24T03:53:56;17.50;99.90
37380;DHT22;23252;-33.992;18.480;2023-04-24T03:56:22;17.60;99.90
37380;DHT22;23252;-33.992;18.480;2023-04-24T03:58:49;17.60;99.90
37380;DHT22;23252;-33.992;18.480;2023-04-24T04:01:15;17.60;99.90
37380;DHT22;23252;-33.992;18.480;2023-04-24T04:03:42;17.60;99.90
37380;DHT22;23252;-33.992;18.480;2023-04-24T04:06:08;17.60;99.90
37380;DHT22;23252;-33.992;18.480;2023-04-24T04:08:37;17.60;99.90
37380;DHT22;23252;-33.992;18.480;2023-04-24T04:11:03;17.70;99.90
37380;DHT22;23252;-33.992;18.480;2023-04-24T04:13:30;17.70;99.90
37380;DHT22;23252;-33.992;18.480;2023-04-24T04:15:56;17.60;99.90
37380;DHT22;23252;-33.992;18.480;2023-04-24T04:18:23;17.50;99.90
37380;DHT22;23252;-33.992;18.480;2023-04-24T04:20:49;17.40;99.90
37380;DHT22;23252;-33.992;18.480;2023-04-24T04:23:16;17.40;99.90
37380;DHT22;23252;-33.992;18.480;2023-04-24T04:25:42;17.30;99.90
37380;DHT22;23252;-33.992;18.480;2023-04-24T04:28:09;17.20;99.90
37380;DHT22;23252;-33.992;18.480;2023-04-24T04:30:35;17.20;99.90
37380;DHT22;23252;-33.992;18.480;2023-04-24T04:33:04;17.10;99.90
37380;DHT22;23252;-33.992;18.480;2023-04-24T04:35:30;17.10;99.90
37380;DHT22;23252;-33.992;18.480;2023-04-24T04:37:57;17.00;99.90
37380;DHT22;23252;-33.992;18.480;2023-04-24T04:40:26;17.00;99.90
37380;DHT22;23252;-33.992;18.480;2023-04-24T04:42:54;17.00;99.90
37380;DHT22;23252;-33.992;18.480;2023-04-24T04:45:20;17.00;99.90
37380;DHT22;23252;-33.992;18.480;2023-04-24T04:47:47;17.00;99.90
37380;DHT22;23252;-33.992;18.480;2023-04-24T04:50:14;17.00;99.90
37380;DHT22;23252;-33.992;18.480;2023-04-24T04:52:42;17.00;99.90
37380;DHT22;23252;-33.992;18.480;2023-04-24T04:55:09;17.00;99.90
37380;DHT22;23252;-33.992;18.480;2023-04-24T04:57:35;17.00;99.90
37380;DHT22;23252;-33.992;18.480;2023-04-24T05:00:02;17.00;99.90
37380;DHT22;23252;-33.992;18.480;2023-04-24T05:02:30;17.00;99.90
37380;DHT22;23252;-33.992;18.480;2023-04-24T05:04:57;17.00;99.90
37380;DHT22;23252;-33.992;18.480;2023-04-24T05:07:23;17.10;99.90
37380;DHT22;23252;-33.992;18.480;2023-04-24T05:09:50;17.00;99.90
37380;DHT22;23252;-33.992;18.480;2023-04-24T05:12:18;17.10;99.90
37380;DHT22;23252;-33.992;18.480;2023-04-24T05:14:44;17.10;99.90
37380;DHT22;23252;-33.992;18.480;2023-04-24T05:17:11;17.10;99.90
37380;DHT22;23252;-33.992;18.480;2023-04-24T05:19:37;17.10;99.90
37380;DHT22;23252;-33.992;18.480;2023-04-24T05:22:04;17.10;99.90
37380;DHT22;23252;-33.992;18.480;2023-04-24T05:24:38;17.00;99.90
37380;DHT22;23252;-33.992;18.480;2023-04-24T05:27:05;17.00;99.90
37380;DHT22;23252;-33.992;18.480;2023-04-24T05:29:32;17.00;99.90
37380;DHT22;23252;-33.992;18.480;2023-04-24T05:31:59;17.00;99.90
37380;DHT22;23252;-33.992;18.480;2023-04-24T05:34:26;17.00;99.90
37380;DHT22;23252;-33.992;18.480;2023-04-24T05:36:52;17.00;99.90
37380;DHT22;23252;-33.992;18.480;2023-04-24T05:39:19;17.00;99.90
37380;DHT22;23252;-33.992;18.480;2023-04-24T05:41:45;17.00;99.90
37380;DHT22;23252;-33.992;18.480;2023-04-24T05:44:12;17.00;99.90
37380;DHT22;23252;-33.992;18.480;2023-04-24T05:46:38;17.00;99.90
37380;DHT22;23252;-33.992;18.480;2023-04-24T05:49:05;17.00;99.90
37380;DHT22;23252;-33.992;18.480;2023-04-24T05:51:31;16.90;99.90
37380;DHT22;23252;-33.992;18.480;2023-04-24T05:53:58;16.90;99.90
37380;DHT22;23252;-33.992;18.480;2023-04-24T05:56:24;16.90;99.90
37380;DHT22;23252;-33.992;18.480;2023-04-24T05:58:51;16.90;99.90
37380;DHT22;23252;-33.992;18.480;2023-04-24T06:01:17;16.90;99.90
37380;DHT22;23252;-33.992;18.480;2023-04-24T06:03:45;17.00;99.90
37380;DHT22;23252;-33.992;18.480;2023-04-24T06:06:12;16.90;99.90
37380;DHT22;23252;-33.992;18.480;2023-04-24T06:08:38;16.90;99.90
37380;DHT22;23252;-33.992;18.480;2023-04-24T06:11:05;16.90;99.90
37380;DHT22;23252;-33.992;18.480;2023-04-24T06:13:31;16.80;99.90
37380;DHT22;23252;-33.992;18.480;2023-04-24T06:15:58;16.90;99.90
37380;DHT22;23252;-33.992;18.480;2023-04-24T06:18:24;16.90;99.90
37380;DHT22;23252;-33.992;18.480;2023-04-24T06:20:50;16.90;99.90
37380;DHT22;23252;-33.992;18.480;2023-04-24T06:23:17;16.90;99.90
37380;DHT22;23252;-33.992;18.480;2023-04-24T06:25:44;16.90;99.90
37380;DHT22;23252;-33.992;18.480;2023-04-24T06:28:10;16.90;99.90
37380;DHT22;23252;-33.992;18.480;2023-04-24T06:30:37;17.00;99.90
37380;DHT22;23252;-33.992;18.480;2023-04-24T06:33:03;17.10;99.90
37380;DHT22;23252;-33.992;18.480;2023-04-24T06:35:30;17.10;99.90
37380;DHT22;23252;-33.992;18.480;2023-04-24T06:37:56;17.20;99.90
37380;DHT22;23252;-33.992;18.480;2023-04-24T06:40:23;17.20;99.90
37380;DHT22;23252;-33.992;18.480;2023-04-24T06:42:50;17.20;99.90
37380;DHT22;23252;-33.992;18.480;2023-04-24T06:45:17;17.20;99.90
37380;DHT22;23252;-33.992;18.480;2023-04-24T06:47:43;17.30;99.90
37380;DHT22;23252;-33.992;18.480;2023-04-24T06:50:10;17.30;99.90
37380;DHT22;23252;-33.992;18.480;2023-04-24T06:52:37;17.30;99.90
37380;DHT22;23252;-33.992;18.480;2023-04-24T06:55:04;17.30;99.90
37380;DHT22;23252;-33.992;18.480;2023-04-24T06:57:31;17.30;99.90
37380;DHT22;23252;-33.992;18.480;2023-04-24T06:59:57;17.30;99.90
37380;DHT22;23252;-33.992;18.480;2023-04-24T07:02:24;17.30;99.90
37380;DHT22;23252;-33.992;18.480;2023-04-24T07:04:51;17.30;99.90
37380;DHT22;23252;-33.992;18.480;2023-04-24T07:07:18;17.30;99.90
37380;DHT22;23252;-33.992;18.480;2023-04-24T07:09:45;17.40;99.90
37380;DHT22;23252;-33.992;18.480;2023-04-24T07:12:12;17.50;99.90
37380;DHT22;23252;-33.992;18.480;2023-04-24T07:14:42;17.50;99.90
37380;DHT22;23252;-33.992;18.480;2023-04-24T07:17:09;17.50;99.90
37380;DHT22;23252;-33.992;18.480;2023-04-24T07:19:35;17.60;99.90
37380;DHT22;23252;-33.992;18.480;2023-04-24T07:22:02;17.60;99.90
37380;DHT22;23252;-33.992;18.480;2023-04-24T07:24:29;17.60;99.90
37380;DHT22;23252;-33.992;18.480;2023-04-24T07:26:58;17.60;99.90
37380;DHT22;23252;-33.992;18.480;2023-04-24T07:29:27;17.60;99.90
37380;DHT22;23252;-33.992;18.480;2023-04-24T07:31:53;17.60;99.90
37380;DHT22;23252;-33.992;18.480;2023-04-24T07:37:36;17.50;99.90
37380;DHT22;23252;-33.992;18.480;2023-04-24T07:40:13;17.50;99.90
37380;DHT22;23252;-33.992;18.480;2023-04-24T07:42:39;17.40;99.90
37380;DHT22;23252;-33.992;18.480;2023-04-24T07:45:06;17.40;99.90
37380;DHT22;23252;-33.992;18.480;2023-04-24T07:47:33;17.50;99.90
37380;DHT22;23252;-33.992;18.480;2023-04-24T07:50:00;17.50;99.90
37380;DHT22;23252;-33.992;18.480;2023-04-24T07:52:26;17.50;99.90
37380;DHT22;23252;-33.992;18.480;2023-04-24T07:54:54;17.60;99.90
37380;DHT22;23252;-33.992;18.480;2023-04-24T07:57:26;17.60;99.90
37380;DHT22;23252;-33.992;18.480;2023-04-24T07:59:53;17.60;99.90
37380;DHT22;23252;-33.992;18.480;2023-04-24T08:02:19;17.70;99.90
37380;DHT22;23252;-33.992;18.480;2023-04-24T10:13:55;18.10;99.90
37380;DHT22;23252;-33.992;18.480;2023-04-24T10:16:23;18.80;99.90
37380;DHT22;23252;-33.992;18.480;2023-04-24T10:18:50;19.00;99.90
37380;DHT22;23252;-33.992;18.480;2023-04-24T10:21:17;19.10;99.90
37380;DHT22;23252;-33.992;18.480;2023-04-24T10:23:44;19.20;99.90
37380;DHT22;23252;-33.992;18.480;2023-04-24T10:26:16;19.30;99.90
37380;DHT22;23252;-33.992;18.480;2023-04-24T10:28:47;19.40;99.90
37380;DHT22;23252;-33.992;18.480;2023-04-24T10:31:15;19.50;99.90
37380;DHT22;23252;-33.992;18.480;2023-04-24T10:33:42;19.70;99.90
37380;DHT22;23252;-33.992;18.480;2023-04-24T10:36:10;19.80;99.90
37380;DHT22;23252;-33.992;18.480;2023-04-24T10:38:40;19.80;99.90
37380;DHT22;23252;-33.992;18.480;2023-04-24T10:41:09;19.70;99.90
37380;DHT22;23252;-33.992;18.480;2023-04-24T10:43:36;19.90;99.90
37380;DHT22;23252;-33.992;18.480;2023-04-24T10:46:06;20.10;99.90
37380;DHT22;23252;-33.992;18.480;2023-04-24T10:48:33;20.20;99.90
37380;DHT22;23252;-33.992;18.480;2023-04-24T10:50:59;20.10;99.90
37380;DHT22;23252;-33.992;18.480;2023-04-24T10:53:30;20.10;99.90
37380;DHT22;23252;-33.992;18.480;2023-04-24T10:56:06;20.10;99.90
37380;DHT22;23252;-33.992;18.480;2023-04-24T11:01:04;20.00;99.90
37380;DHT22;23252;-33.992;18.480;2023-04-24T11:03:33;20.00;99.90
37380;DHT22;23252;-33.992;18.480;2023-04-24T11:08:32;20.10;99.90
37380;DHT22;23252;-33.992;18.480;2023-04-24T11:13:27;20.10;99.90
37380;DHT22;23252;-33.992;18.480;2023-04-24T11:19:04;20.20;99.90
37380;DHT22;23252;-33.992;18.480;2023-04-24T11:21:41;20.30;99.90
37380;DHT22;23252;-33.992;18.480;2023-04-24T11:24:27;20.30;99.90
37380;DHT22;23252;-33.992;18.480;2023-04-24T11:37:43;20.20;99.90
37380;DHT22;23252;-33.992;18.480;2023-04-24T11:40:13;20.10;99.90
37380;DHT22;23252;-33.992;18.480;2023-04-24T11:42:48;20.10;99.90
37380;DHT22;23252;-33.992;18.480;2023-04-24T11:45:17;20.10;99.90
37380;DHT22;23252;-33.992;18.480;2023-04-24T11:47:44;20.20;99.90
37380;DHT22;23252;-33.992;18.480;2023-04-24T11:50:13;20.10;99.90
37380;DHT22;23252;-33.992;18.480;2023-04-24T11:52:42;20.10;99.90
37380;DHT22;23252;-33.992;18.480;2023-04-24T11:55:23;20.20;99.90
37380;DHT22;23252;-33.992;18.480;2023-04-24T11:57:56;20.40;99.90
37380;DHT22;23252;-33.992;18.480;2023-04-24T12:00:31;20.30;99.90
37380;DHT22;23252;-33.992;18.480;2023-04-24T12:03:10;20.30;99.90
37380;DHT22;23252;-33.992;18.480;2023-04-24T12:05:37;20.60;99.90
37380;DHT22;23252;-33.992;18.480;2023-04-24T12:08:05;20.80;99.90
37380;DHT22;23252;-33.992;18.480;2023-04-24T12:10:33;21.00;99.90
37380;DHT22;23252;-33.992;18.480;2023-04-24T12:13:00;21.00;99.90
37380;DHT22;23252;-33.992;18.480;2023-04-24T12:15:27;21.10;99.90
37380;DHT22;23252;-33.992;18.480;2023-04-24T12:17:54;21.00;99.90
37380;DHT22;23252;-33.992;18.480;2023-04-24T12:20:28;20.90;99.90
37380;DHT22;23252;-33.992;18.480;2023-04-24T12:22:56;20.80;99.90
37380;DHT22;23252;-33.992;18.480;2023-04-24T12:25:27;20.90;99.90
37380;DHT22;23252;-33.992;18.480;2023-04-24T12:28:17;20.80;99.90
37380;DHT22;23252;-33.992;18.480;2023-04-24T12:30:47;20.80;99.90
37380;DHT22;23252;-33.992;18.480;2023-04-24T12:33:18;20.70;99.90
37380;DHT22;23252;-33.992;18.480;2023-04-24T12:35:45;20.70;99.90
37380;DHT22;23252;-33.992;18.480;2023-04-24T12:38:13;20.90;99.90
37380;DHT22;23252;-33.992;18.480;2023-04-24T12:40:41;21.00;99.90
37380;DHT22;23252;-33.992;18.480;2023-04-24T12:43:14;21.00;99.90
37380;DHT22;23252;-33.992;18.480;2023-04-24T12:45:41;21.00;99.90
37380;DHT22;23252;-33.992;18.480;2023-04-24T12:48:08;20.80;99.90
37380;DHT22;23252;-33.992;18.480;2023-04-24T12:50:34;20.90;99.90
37380;DHT22;23252;-33.992;18.480;2023-04-24T12:53:01;21.00;99.90
37380;DHT22;23252;-33.992;18.480;2023-04-24T12:55:27;20.90;99.90
37380;DHT22;23252;-33.992;18.480;2023-04-24T12:57:54;20.80;99.90
37380;DHT22;23252;-33.992;18.480;2023-04-24T13:00:22;20.80;99.90
37380;DHT22;23252;-33.992;18.480;2023-04-24T13:02:48;20.90;99.90
37380;DHT22;23252;-33.992;18.480;2023-04-24T13:05:14;20.90;99.90
37380;DHT22;23252;-33.992;18.480;2023-04-24T13:07:41;20.80;99.90
37380;DHT22;23252;-33.992;18.480;2023-04-24T13:10:08;20.80;99.90
37380;DHT22;23252;-33.992;18.480;2023-04-24T13:12:34;20.70;99.90
37380;DHT22;23252;-33.992;18.480;2023-04-24T13:15:01;20.70;99.90
37380;DHT22;23252;-33.992;18.480;2023-04-24T13:17:27;20.60;99.90
37380;DHT22;23252;-33.992;18.480;2023-04-24T13:19:55;20.50;99.90
37380;DHT22;23252;-33.992;18.480;2023-04-24T13:22:21;20.50;99.90
37380;DHT22;23252;-33.992;18.480;2023-04-24T13:24:48;20.60;99.90
37380;DHT22;23252;-33.992;18.480;2023-04-24T13:27:15;20.60;99.90
37380;DHT22;23252;-33.992;18.480;2023-04-24T13:29:42;20.50;99.90
37380;DHT22;23252;-33.992;18.480;2023-04-24T13:32:09;20.50;99.90
37380;DHT22;23252;-33.992;18.480;2023-04-24T13:34:35;20.60;99.90
37380;DHT22;23252;-33.992;18.480;2023-04-24T13:37:03;20.50;99.90
37380;DHT22;23252;-33.992;18.480;2023-04-24T13:39:29;20.60;99.90
37380;DHT22;23252;-33.992;18.480;2023-04-24T13:41:56;20.60;99.90
37380;DHT22;23252;-33.992;18.480;2023-04-24T13:44:23;20.50;99.90
37380;DHT22;23252;-33.992;18.480;2023-04-24T13:46:53;20.50;99.90
37380;DHT22;23252;-33.992;18.480;2023-04-24T13:49:21;20.40;99.90
37380;DHT22;23252;-33.992;18.480;2023-04-24T13:51:47;20.50;99.90
37380;DHT22;23252;-33.992;18.480;2023-04-24T13:54:14;20.50;99.90
37380;DHT22;23252;-33.992;18.480;2023-04-24T13:56:41;20.40;99.90
37380;DHT22;23252;-33.992;18.480;2023-04-24T13:59:07;20.40;99.90
37380;DHT22;23252;-33.992;18.480;2023-04-24T14:01:34;20.40;99.90
37380;DHT22;23252;-33.992;18.480;2023-04-24T14:04:01;20.30;99.90
37380;DHT22;23252;-33.992;18.480;2023-04-24T14:06:27;20.30;99.90
37380;DHT22;23252;-33.992;18.480;2023-04-24T14:08:54;20.30;99.90
37380;DHT22;23252;-33.992;18.480;2023-04-24T14:11:20;20.30;99.90
37380;DHT22;23252;-33.992;18.480;2023-04-24T14:13:48;20.20;99.90
37380;DHT22;23252;-33.992;18.480;2023-04-24T14:16:15;20.30;99.90
37380;DHT22;23252;-33.992;18.480;2023-04-24T14:18:41;20.30;99.90
37380;DHT22;23252;-33.992;18.480;2023-04-24T14:21:08;20.30;99.90
37380;DHT22;23252;-33.992;18.480;2023-04-24T14:23:34;20.30;99.90
37380;DHT22;23252;-33.992;18.480;2023-04-24T14:26:01;20.50;99.90
37380;DHT22;23252;-33.992;18.480;2023-04-24T14:28:28;20.60;99.90
37380;DHT22;23252;-33.992;18.480;2023-04-24T14:30:54;20.50;99.90
37380;DHT22;23252;-33.992;18.480;2023-04-24T14:33:21;20.40;99.90
37380;DHT22;23252;-33.992;18.480;2023-04-24T14:35:47;20.30;99.90
37380;DHT22;23252;-33.992;18.480;2023-04-24T14:38:14;20.20;99.90
37380;DHT22;23252;-33.992;18.480;2023-04-24T14:40:42;20.30;99.90
37380;DHT22;23252;-33.992;18.480;2023-04-24T14:43:09;20.10;99.90
37380;DHT22;23252;-33.992;18.480;2023-04-24T14:45:37;20.00;99.90
37380;DHT22;23252;-33.992;18.480;2023-04-24T14:48:04;19.90;99.90
37380;DHT22;23252;-33.992;18.480;2023-04-24T14:50:30;19.80;99.90
37380;DHT22;23252;-33.992;18.480;2023-04-24T14:52:57;19.80;99.90
37380;DHT22;23252;-33.992;18.480;2023-04-24T14:55:24;19.70;99.90
37380;DHT22;23252;-33.992;18.480;2023-04-24T14:57:51;19.70;99.90
37380;DHT22;23252;-33.992;18.480;2023-04-24T15:00:18;19.60;99.90
37380;DHT22;23252;-33.992;18.480;2023-04-24T15:02:46;19.60;99.90
37380;DHT22;23252;-33.992;18.480;2023-04-24T15:05:12;19.50;99.90
37380;DHT22;23252;-33.992;18.480;2023-04-24T15:07:39;19.40;99.90
37380;DHT22;23252;-33.992;18.480;2023-04-24T15:10:07;19.30;99.90
37380;DHT22;23252;-33.992;18.480;2023-04-24T15:12:34;19.30;99.90
37380;DHT22;23252;-33.992;18.480;2023-04-24T15:15:01;19.20;99.90
37380;DHT22;23252;-33.992;18.480;2023-04-24T15:17:27;19.10;99.90
37380;DHT22;23252;-33.992;18.480;2023-04-24T15:19:54;19.10;99.90
37380;DHT22;23252;-33.992;18.480;2023-04-24T15:22:20;19.10;99.90
37380;DHT22;23252;-33.992;18.480;2023-04-24T15:24:47;19.10;99.90
37380;DHT22;23252;-33.992;18.480;2023-04-24T15:27:13;19.10;99.90
37380;DHT22;23252;-33.992;18.480;2023-04-24T15:29:39;19.00;99.90
37380;DHT22;23252;-33.992;18.480;2023-04-24T15:32:06;19.00;99.90
37380;DHT22;23252;-33.992;18.480;2023-04-24T15:34:32;19.00;99.90
37380;DHT22;23252;-33.992;18.480;2023-04-24T15:37:00;18.90;99.90
37380;DHT22;23252;-33.992;18.480;2023-04-24T15:39:26;18.80;99.90
37380;DHT22;23252;-33.992;18.480;2023-04-24T15:41:53;18.80;99.90
37380;DHT22;23252;-33.992;18.480;2023-04-24T15:44:21;18.80;99.90
37380;DHT22;23252;-33.992;18.480;2023-04-24T15:46:48;18.70;99.90
37380;DHT22;23252;-33.992;18.480;2023-04-24T15:49:14;18.60;99.90
37380;DHT22;23252;-33.992;18.480;2023-04-24T15:51:41;18.60;99.90
37380;DHT22;23252;-33.992;18.480;2023-04-24T15:54:07;18.60;99.90
37380;DHT22;23252;-33.992;18.480;2023-04-24T15:56:34;18.50;99.90
37380;DHT22;23252;-33.992;18.480;2023-04-24T15:59:02;18.50;99.90
37380;DHT22;23252;-33.992;18.480;2023-04-24T16:01:29;18.40;99.90
37380;DHT22;23252;-33.992;18.480;2023-04-24T16:03:56;18.30;99.90
37380;DHT22;23252;-33.992;18.480;2023-04-24T18:14:29;16.80;99.90
37380;DHT22;23252;-33.992;18.480;2023-04-24T18:16:55;16.80;99.90
37380;DHT22;23252;-33.992;18.480;2023-04-24T18:19:23;16.90;99.90
37380;DHT22;23252;-33.992;18.480;2023-04-24T18:21:49;16.90;99.90
37380;DHT22;23252;-33.992;18.480;2023-04-24T18:24:16;16.80;99.90
37380;DHT22;23252;-33.992;18.480;2023-04-24T18:26:42;16.70;99.90
37380;DHT22;23252;-33.992;18.480;2023-04-24T18:29:09;16.70;99.90
37380;DHT22;23252;-33.992;18.480;2023-04-24T18:31:35;16.70;99.90
37380;DHT22;23252;-33.992;18.480;2023-04-24T18:34:02;16.70;99.90
37380;DHT22;23252;-33.992;18.480;2023-04-24T18:36:28;16.70;99.90
37380;DHT22;23252;-33.992;18.480;2023-04-24T18:38:55;16.70;99.90
37380;DHT22;23252;-33.992;18.480;2023-04-24T18:41:23;16.70;99.90
37380;DHT22;23252;-33.992;18.480;2023-04-24T18:43:50;16.70;99.90
37380;DHT22;23252;-33.992;18.480;2023-04-24T18:46:17;16.70;99.90
37380;DHT22;23252;-33.992;18.480;2023-04-24T18:48:43;16.70;99.90
37380;DHT22;23252;-33.992;18.480;2023-04-24T18:51:10;16.70;99.90
37380;DHT22;23252;-33.992;18.480;2023-04-24T18:53:36;16.70;99.90
37380;DHT22;23252;-33.992;18.480;2023-04-24T18:56:03;16.70;99.90
37380;DHT22;23252;-33.992;18.480;2023-04-24T18:58:29;16.60;99.90
37380;DHT22;23252;-33.992;18.480;2023-04-24T19:00:56;16.60;99.90
37380;DHT22;23252;-33.992;18.480;2023-04-24T19:03:23;16.60;99.90
37380;DHT22;23252;-33.992;18.480;2023-04-24T19:05:49;16.50;99.90
37380;DHT22;23252;-33.992;18.480;2023-04-24T19:08:16;16.60;99.90
37380;DHT22;23252;-33.992;18.480;2023-04-24T19:10:42;16.60;99.90
37380;DHT22;23252;-33.992;18.480;2023-04-24T19:13:09;16.60;99.90
37380;DHT22;23252;-33.992;18.480;2023-04-24T19:15:35;16.60;99.90
37380;DHT22;23252;-33.992;18.480;2023-04-24T19:18:02;16.50;99.90
37380;DHT22;23252;-33.992;18.480;2023-04-24T19:20:29;16.60;99.90
37380;DHT22;23252;-33.992;18.480;2023-04-24T19:22:55;16.60;99.90
37380;DHT22;23252;-33.992;18.480;2023-04-24T19:25:22;16.60;99.90
37380;DHT22;23252;-33.992;18.480;2023-04-24T19:27:49;16.60;99.90
37380;DHT22;23252;-33.992;18.480;2023-04-24T19:30:16;16.60;99.90
37380;DHT22;23252;-33.992;18.480;2023-04-24T19:32:42;16.70;99.90
37380;DHT22;23252;-33.992;18.480;2023-04-24T19:35:09;16.70;99.90
37380;DHT22;23252;-33.992;18.480;2023-04-24T19:37:35;16.70;99.90
37380;DHT22;23252;-33.992;18.480;2023-04-24T19:40:02;16.70;99.90
37380;DHT22;23252;-33.992;18.480;2023-04-24T19:42:30;16.80;99.90
37380;DHT22;23252;-33.992;18.480;2023-04-24T19:44:57;16.70;99.90
37380;DHT22;23252;-33.992;18.480;2023-04-24T19:47:23;16.80;99.90
37380;DHT22;23252;-33.992;18.480;2023-04-24T19:49:50;16.80;99.90
37380;DHT22;23252;-33.992;18.480;2023-04-24T19:52:17;16.70;99.90
37380;DHT22;23252;-33.992;18.480;2023-04-24T19:54:44;16.70;99.90
37380;DHT22;23252;-33.992;18.480;2023-04-24T19:57:10;16.70;99.90
37380;DHT22;23252;-33.992;18.480;2023-04-24T19:59:37;16.60;99.90
37380;DHT22;23252;-33.992;18.480;2023-04-24T20:02:03;16.60;99.90
37380;DHT22;23252;-33.992;18.480;2023-04-24T20:04:30;16.60;99.90
37380;DHT22;23252;-33.992;18.480;2023-04-24T20:06:56;16.60;99.90
37380;DHT22;23252;-33.992;18.480;2023-04-24T20:09:23;16.60;99.90
37380;DHT22;23252;-33.992;18.480;2023-04-24T20:11:49;16.60;99.90
37380;DHT22;23252;-33.992;18.480;2023-04-24T20:14:18;16.60;99.90
37380;DHT22;23252;-33.992;18.480;2023-04-24T20:16:45;16.50;99.90
37380;DHT22;23252;-33.992;18.480;2023-04-24T20:19:11;16.50;99.90
37380;DHT22;23252;-33.992;18.480;2023-04-24T20:21:38;16.40;99.90
37380;DHT22;23252;-33.992;18.480;2023-04-24T20:24:05;16.50;99.90
37380;DHT22;23252;-33.992;18.480;2023-04-24T20:26:34;16.50;99.90
37380;DHT22;23252;-33.992;18.480;2023-04-24T20:29:02;16.50;99.90
37380;DHT22;23252;-33.992;18.480;2023-04-24T20:31:29;16.50;99.90
37380;DHT22;23252;-33.992;18.480;2023-04-24T20:33:55;16.50;99.90
37380;DHT22;23252;-33.992;18.480;2023-04-24T20:36:22;16.50;99.90
37380;DHT22;23252;-33.992;18.480;2023-04-24T20:38:48;16.50;99.90
37380;DHT22;23252;-33.992;18.480;2023-04-24T20:41:16;16.50;99.90
37380;DHT22;23252;-33.992;18.480;2023-04-24T20:43:44;16.50;99.90
37380;DHT22;23252;-33.992;18.480;2023-04-24T20:46:11;16.40;99.90
37380;DHT22;23252;-33.992;18.480;2023-04-24T20:48:37;16.30;99.90
37380;DHT22;23252;-33.992;18.480;2023-04-24T20:51:04;16.30;99.90
37380;DHT22;23252;-33.992;18.480;2023-04-24T20:53:31;16.30;99.90
37380;DHT22;23252;-33.992;18.480;2023-04-24T20:55:57;16.20;99.90
37380;DHT22;23252;-33.992;18.480;2023-04-24T20:58:24;16.20;99.90
37380;DHT22;23252;-33.992;18.480;2023-04-24T21:00:51;16.20;99.90
37380;DHT22;23252;-33.992;18.480;2023-04-24T21:03:17;16.20;99.90
37380;DHT22;23252;-33.992;18.480;2023-04-24T21:05:44;16.10;99.90
37380;DHT22;23252;-33.992;18.480;2023-04-24T21:08:11;16.10;99.90
37380;DHT22;23252;-33.992;18.480;2023-04-24T21:10:37;16.00;99.90
37380;DHT22;23252;-33.992;18.480;2023-04-24T21:13:04;16.00;99.90
37380;DHT22;23252;-33.992;18.480;2023-04-24T21:15:31;16.00;99.90
37380;DHT22;23252;-33.992;18.480;2023-04-24T21:17:57;16.10;99.90
37380;DHT22;23252;-33.992;18.480;2023-04-24T21:20:24;16.10;99.90
37380;DHT22;23252;-33.992;18.480;2023-04-24T21:22:51;16.10;99.90
37380;DHT22;23252;-33.992;18.480;2023-04-24T21:25:17;16.00;99.90
37380;DHT22;23252;-33.992;18.480;2023-04-24T21:27:44;16.00;99.90
37380;DHT22;23252;-33.992;18.480;2023-04-24T21:30:11;15.90;99.90
37380;DHT22;23252;-33.992;18.480;2023-04-24T21:32:38;15.90;99.90
37380;DHT22;23252;-33.992;18.480;2023-04-24T21:35:05;15.90;99.90